sensor_id;sensor_type;location;lat;lon;timestamp;P1;durP1;ratioP1;P2;durP2;ratioP2
73023;SDS011;72676;47.526;8.538;2023-12-20T00:01:02;14.13;;;7.07;;
73023;SDS011;72676;47.526;8.538;2023-12-20T00:03:29;14.83;;;7.70;;
73023;SDS011;72676;47.526;8.538;2023-12-20T00:06:07;14.27;;;7.80;;
73023;SDS011;72676;47.526;8.538;2023-12-20T00:08:33;16.07;;;8.10;;
73023;SDS011;72676;47.526;8.538;2023-12-20T00:11:00;13.97;;;7.57;;
73023;SDS011;72676;47.526;8.538;2023-12-20T00:13:26;18.50;;;8.57;;
73023;SDS011;72676;47.526;8.538;2023-12-20T00:15:53;16.53;;;7.90;;
73023;SDS011;72676;47.526;8.538;2023-12-20T00:18:19;16.17;;;9.27;;
73023;SDS011;72676;47.526;8.538;2023-12-20T00:20:46;14.27;;;8.17;;
73023;SDS011;72676;47.526;8.538;2023-12-20T00:23:12;14.83;;;8.43;;
73023;SDS011;72676;47.526;8.538;2023-12-20T00:25:39;16.77;;;8.93;;
73023;SDS011;72676;47.526;8.538;2023-12-20T00:28:05;15.77;;;7.93;;
73023;SDS011;72676;47.526;8.538;2023-12-20T00:30:32;15.60;;;8.23;;
73023;SDS011;72676;47.526;8.538;2023-12-20T00:32:59;17.60;;;8.77;;
73023;SDS011;72676;47.526;8.538;2023-12-20T00:35:25;14.40;;;7.63;;
73023;SDS011;72676;47.526;8.538;2023-12-20T00:37:52;17.33;;;9.20;;
73023;SDS011;72676;47.526;8.538;2023-12-20T00:40:18;15.50;;;8.70;;
73023;SDS011;72676;47.526;8.538;2023-12-20T00:42:45;18.70;;;9.17;;
73023;SDS011;72676;47.526;8.538;2023-12-20T00:45:13;17.87;;;10.70;;
73023;SDS011;72676;47.526;8.538;2023-12-20T00:47:41;18.07;;;8.40;;
73023;SDS011;72676;47.526;8.538;2023-12-20T00:50:08;17.13;;;8.50;;
73023;SDS011;72676;47.526;8.538;2023-12-20T00:52:35;20.90;;;9.47;;
73023;SDS011;72676;47.526;8.538;2023-12-20T00:55:02;16.30;;;9.03;;
73023;SDS011;72676;47.526;8.538;2023-12-20T00:57:30;16.53;;;8.97;;
73023;SDS011;72676;47.526;8.538;2023-12-20T00:59:57;17.37;;;9.53;;
73023;SDS011;72676;47.526;8.538;2023-12-20T01:02:23;20.53;;;10.13;;
73023;SDS011;72676;47.526;8.538;2023-12-20T01:04:50;18.80;;;10.03;;
73023;SDS011;72676;47.526;8.538;2023-12-20T01:07:16;16.43;;;8.73;;
73023;SDS011;72676;47.526;8.538;2023-12-20T01:09:43;18.80;;;8.77;;
73023;SDS011;72676;47.526;8.538;2023-12-20T01:12:10;20.33;;;10.20;;
73023;SDS011;72676;47.526;8.538;2023-12-20T01:14:36;15.87;;;8.63;;
73023;SDS011;72676;47.526;8.538;2023-12-20T01:17:03;17.83;;;10.00;;
73023;SDS011;72676;47.526;8.538;2023-12-20T01:19:29;15.87;;;9.20;;
73023;SDS011;72676;47.526;8.538;2023-12-20T01:21:56;27.23;;;9.67;;
73023;SDS011;72676;47.526;8.538;2023-12-20T01:24:22;16.20;;;9.10;;
73023;SDS011;72676;47.526;8.538;2023-12-20T01:26:49;19.43;;;9.53;;
73023;SDS011;72676;47.526;8.538;2023-12-20T01:29:15;22.87;;;10.43;;
73023;SDS011;72676;47.526;8.538;2023-12-20T01:31:42;18.83;;;9.10;;
73023;SDS011;72676;47.526;8.538;2023-12-20T01:34:09;19.83;;;10.90;;
73023;SDS011;72676;47.526;8.538;2023-12-20T01:36:35;17.63;;;8.90;;
73023;SDS011;72676;47.526;8.538;2023-12-20T01:39:02;18.30;;;9.50;;
73023;SDS011;72676;47.526;8.538;2023-12-20T01:41:31;18.97;;;9.90;;
73023;SDS011;72676;47.526;8.538;2023-12-20T01:43:58;18.97;;;9.57;;
73023;SDS011;72676;47.526;8.538;2023-12-20T01:46:24;19.63;;;9.40;;
73023;SDS011;72676;47.526;8.538;2023-12-20T01:48:52;18.77;;;10.13;;
73023;SDS011;72676;47.526;8.538;2023-12-20T01:51:19;25.27;;;10.50;;
73023;SDS011;72676;47.526;8.538;2023-12-20T01:53:46;20.27;;;8.97;;
73023;SDS011;72676;47.526;8.538;2023-12-20T01:56:13;18.13;;;10.10;;
73023;SDS011;72676;47.526;8.538;2023-12-20T01:58:43;18.00;;;9.63;;
73023;SDS011;72676;47.526;8.538;2023-12-20T02:01:11;21.27;;;10.00;;
73023;SDS011;72676;47.526;8.538;2023-12-20T02:03:41;16.67;;;9.00;;
73023;SDS011;72676;47.526;8.538;2023-12-20T02:06:08;20.40;;;10.23;;
73023;SDS011;72676;47.526;8.538;2023-12-20T02:08:36;20.97;;;9.30;;
73023;SDS011;72676;47.526;8.538;2023-12-20T02:11:02;18.37;;;9.27;;
73023;SDS011;72676;47.526;8.538;2023-12-20T02:13:30;19.57;;;9.23;;
73023;SDS011;72676;47.526;8.538;2023-12-20T02:15:56;15.67;;;9.00;;
73023;SDS011;72676;47.526;8.538;2023-12-20T02:18:23;19.57;;;9.27;;
73023;SDS011;72676;47.526;8.538;2023-12-20T02:20:50;21.07;;;9.43;;
73023;SDS011;72676;47.526;8.538;2023-12-20T02:23:17;21.63;;;9.70;;
73023;SDS011;72676;47.526;8.538;2023-12-20T02:25:43;16.97;;;10.00;;
73023;SDS011;72676;47.526;8.538;2023-12-20T02:28:10;23.23;;;11.03;;
73023;SDS011;72676;47.526;8.538;2023-12-20T02:30:36;19.23;;;9.50;;
73023;SDS011;72676;47.526;8.538;2023-12-20T02:33:03;21.50;;;10.07;;
73023;SDS011;72676;47.526;8.538;2023-12-20T02:35:35;23.83;;;10.53;;
73023;SDS011;72676;47.526;8.538;2023-12-20T02:38:01;21.00;;;9.40;;
73023;SDS011;72676;47.526;8.538;2023-12-20T02:40:28;22.03;;;10.57;;
73023;SDS011;72676;47.526;8.538;2023-12-20T02:42:54;25.43;;;11.27;;
73023;SDS011;72676;47.526;8.538;2023-12-20T02:45:21;18.87;;;10.60;;
73023;SDS011;72676;47.526;8.538;2023-12-20T02:47:47;21.93;;;11.10;;
73023;SDS011;72676;47.526;8.538;2023-12-20T02:50:13;19.43;;;10.27;;
73023;SDS011;72676;47.526;8.538;2023-12-20T02:52:40;22.03;;;10.60;;
73023;SDS011;72676;47.526;8.538;2023-12-20T02:55:07;21.40;;;11.20;;
73023;SDS011;72676;47.526;8.538;2023-12-20T02:57:33;20.67;;;10.43;;
73023;SDS011;72676;47.526;8.538;2023-12-20T03:00:02;24.83;;;11.33;;
73023;SDS011;72676;47.526;8.538;2023-12-20T03:02:29;22.07;;;10.43;;
73023;SDS011;72676;47.526;8.538;2023-12-20T03:04:55;19.00;;;9.83;;
73023;SDS011;72676;47.526;8.538;2023-12-20T03:07:22;22.53;;;10.30;;
73023;SDS011;72676;47.526;8.538;2023-12-20T03:09:49;26.53;;;11.60;;
73023;SDS011;72676;47.526;8.538;2023-12-20T03:12:35;21.20;;;11.07;;
73023;SDS011;72676;47.526;8.538;2023-12-20T03:15:01;21.60;;;11.07;;
73023;SDS011;72676;47.526;8.538;2023-12-20T03:17:28;23.73;;;11.67;;
73023;SDS011;72676;47.526;8.538;2023-12-20T03:19:55;23.50;;;11.63;;
73023;SDS011;72676;47.526;8.538;2023-12-20T03:22:21;23.57;;;12.07;;
73023;SDS011;72676;47.526;8.538;2023-12-20T03:24:48;23.40;;;11.87;;
73023;SDS011;72676;47.526;8.538;2023-12-20T03:27:14;24.80;;;10.50;;
73023;SDS011;72676;47.526;8.538;2023-12-20T03:29:41;24.20;;;12.03;;
73023;SDS011;72676;47.526;8.538;2023-12-20T03:32:07;23.70;;;11.90;;
73023;SDS011;72676;47.526;8.538;2023-12-20T03:34:34;24.17;;;10.83;;
73023;SDS011;72676;47.526;8.538;2023-12-20T03:37:01;25.63;;;12.00;;
73023;SDS011;72676;47.526;8.538;2023-12-20T03:39:28;25.80;;;13.07;;
73023;SDS011;72676;47.526;8.538;2023-12-20T03:41:54;27.70;;;13.40;;
73023;SDS011;72676;47.526;8.538;2023-12-20T03:44:20;26.47;;;12.53;;
73023;SDS011;72676;47.526;8.538;2023-12-20T03:46:48;27.77;;;12.37;;
73023;SDS011;72676;47.526;8.538;2023-12-20T03:49:15;26.10;;;13.20;;
73023;SDS011;72676;47.526;8.538;2023-12-20T03:51:41;31.17;;;14.17;;
73023;SDS011;72676;47.526;8.538;2023-12-20T03:54:08;25.90;;;12.10;;
73023;SDS011;72676;47.526;8.538;2023-12-20T03:56:35;31.47;;;13.73;;
73023;SDS011;72676;47.526;8.538;2023-12-20T03:59:01;30.53;;;14.10;;
73023;SDS011;72676;47.526;8.538;2023-12-20T04:01:28;28.47;;;13.80;;
73023;SDS011;72676;47.526;8.538;2023-12-20T04:03:54;27.30;;;13.70;;
73023;SDS011;72676;47.526;8.538;2023-12-20T04:06:21;28.30;;;13.83;;
73023;SDS011;72676;47.526;8.538;2023-12-20T04:08:47;24.60;;;13.00;;
73023;SDS011;72676;47.526;8.538;2023-12-20T04:11:14;29.97;;;13.50;;
73023;SDS011;72676;47.526;8.538;2023-12-20T04:13:41;34.57;;;13.70;;
73023;SDS011;72676;47.526;8.538;2023-12-20T04:16:07;27.13;;;13.47;;
73023;SDS011;72676;47.526;8.538;2023-12-20T04:18:34;28.83;;;14.00;;
73023;SDS011;72676;47.526;8.538;2023-12-20T04:21:00;24.57;;;13.40;;
73023;SDS011;72676;47.526;8.538;2023-12-20T04:23:27;29.00;;;13.87;;
73023;SDS011;72676;47.526;8.538;2023-12-20T04:25:54;30.17;;;13.83;;
73023;SDS011;72676;47.526;8.538;2023-12-20T04:28:20;28.93;;;14.20;;
73023;SDS011;72676;47.526;8.538;2023-12-20T04:30:47;32.23;;;14.93;;
73023;SDS011;72676;47.526;8.538;2023-12-20T04:33:13;27.90;;;14.50;;
73023;SDS011;72676;47.526;8.538;2023-12-20T04:35:40;29.00;;;14.20;;
73023;SDS011;72676;47.526;8.538;2023-12-20T04:38:08;28.50;;;14.03;;
73023;SDS011;72676;47.526;8.538;2023-12-20T04:40:35;25.70;;;13.13;;
73023;SDS011;72676;47.526;8.538;2023-12-20T04:43:02;27.63;;;13.97;;
73023;SDS011;72676;47.526;8.538;2023-12-20T04:45:28;28.80;;;14.17;;
73023;SDS011;72676;47.526;8.538;2023-12-20T04:47:55;27.20;;;13.20;;
73023;SDS011;72676;47.526;8.538;2023-12-20T04:50:21;30.20;;;14.73;;
73023;SDS011;72676;47.526;8.538;2023-12-20T04:52:48;25.07;;;13.63;;
73023;SDS011;72676;47.526;8.538;2023-12-20T04:55:14;33.77;;;14.23;;
73023;SDS011;72676;47.526;8.538;2023-12-20T04:57:41;29.37;;;14.50;;
73023;SDS011;72676;47.526;8.538;2023-12-20T05:00:08;30.20;;;13.93;;
73023;SDS011;72676;47.526;8.538;2023-12-20T05:02:35;30.53;;;14.20;;
73023;SDS011;72676;47.526;8.538;2023-12-20T05:05:02;32.20;;;14.67;;
73023;SDS011;72676;47.526;8.538;2023-12-20T05:07:29;26.50;;;13.93;;
73023;SDS011;72676;47.526;8.538;2023-12-20T05:09:55;30.10;;;14.60;;
73023;SDS011;72676;47.526;8.538;2023-12-20T05:12:22;28.53;;;14.53;;
73023;SDS011;72676;47.526;8.538;2023-12-20T05:14:48;28.17;;;14.53;;
73023;SDS011;72676;47.526;8.538;2023-12-20T05:17:14;29.67;;;14.50;;
73023;SDS011;72676;47.526;8.538;2023-12-20T05:19:41;34.30;;;15.00;;
73023;SDS011;72676;47.526;8.538;2023-12-20T05:22:07;34.30;;;15.43;;
73023;SDS011;72676;47.526;8.538;2023-12-20T05:24:34;31.67;;;15.23;;
73023;SDS011;72676;47.526;8.538;2023-12-20T05:27:00;29.93;;;16.10;;
73023;SDS011;72676;47.526;8.538;2023-12-20T05:29:27;35.80;;;16.20;;
73023;SDS011;72676;47.526;8.538;2023-12-20T05:31:53;32.93;;;14.97;;
73023;SDS011;72676;47.526;8.538;2023-12-20T05:34:20;31.50;;;16.33;;
73023;SDS011;72676;47.526;8.538;2023-12-20T05:36:47;31.30;;;14.77;;
73023;SDS011;72676;47.526;8.538;2023-12-20T05:39:13;29.30;;;15.30;;
73023;SDS011;72676;47.526;8.538;2023-12-20T05:41:40;31.27;;;15.83;;
73023;SDS011;72676;47.526;8.538;2023-12-20T05:44:06;27.70;;;14.83;;
73023;SDS011;72676;47.526;8.538;2023-12-20T05:46:33;31.53;;;15.23;;
73023;SDS011;72676;47.526;8.538;2023-12-20T05:48:59;31.20;;;15.87;;
73023;SDS011;72676;47.526;8.538;2023-12-20T05:51:26;31.00;;;15.23;;
73023;SDS011;72676;47.526;8.538;2023-12-20T05:53:52;36.00;;;17.60;;
73023;SDS011;72676;47.526;8.538;2023-12-20T05:56:19;32.07;;;16.10;;
73023;SDS011;72676;47.526;8.538;2023-12-20T05:58:45;31.37;;;16.47;;
73023;SDS011;72676;47.526;8.538;2023-12-20T06:01:12;32.80;;;16.37;;
73023;SDS011;72676;47.526;8.538;2023-12-20T06:03:41;39.93;;;17.50;;
73023;SDS011;72676;47.526;8.538;2023-12-20T06:06:08;31.27;;;15.37;;
73023;SDS011;72676;47.526;8.538;2023-12-20T06:08:42;32.63;;;15.37;;
73023;SDS011;72676;47.526;8.538;2023-12-20T06:11:09;31.73;;;16.73;;
73023;SDS011;72676;47.526;8.538;2023-12-20T06:13:36;31.50;;;16.33;;
73023;SDS011;72676;47.526;8.538;2023-12-20T06:16:04;38.43;;;17.97;;
73023;SDS011;72676;47.526;8.538;2023-12-20T06:18:32;34.00;;;17.53;;
73023;SDS011;72676;47.526;8.538;2023-12-20T06:20:58;33.63;;;17.67;;
73023;SDS011;72676;47.526;8.538;2023-12-20T06:23:25;41.87;;;19.03;;
73023;SDS011;72676;47.526;8.538;2023-12-20T06:25:53;37.03;;;18.40;;
73023;SDS011;72676;47.526;8.538;2023-12-20T06:28:19;34.30;;;16.80;;
73023;SDS011;72676;47.526;8.538;2023-12-20T06:30:46;36.63;;;18.20;;
73023;SDS011;72676;47.526;8.538;2023-12-20T06:33:15;38.70;;;19.67;;
73023;SDS011;72676;47.526;8.538;2023-12-20T06:35:42;35.67;;;18.20;;
73023;SDS011;72676;47.526;8.538;2023-12-20T06:38:08;42.63;;;19.90;;
73023;SDS011;72676;47.526;8.538;2023-12-20T06:40:35;40.43;;;17.63;;
73023;SDS011;72676;47.526;8.538;2023-12-20T06:43:02;41.30;;;18.37;;
73023;SDS011;72676;47.526;8.538;2023-12-20T06:45:41;39.87;;;19.07;;
73023;SDS011;72676;47.526;8.538;2023-12-20T06:48:08;38.70;;;18.40;;
73023;SDS011;72676;47.526;8.538;2023-12-20T06:50:37;36.33;;;18.30;;
73023;SDS011;72676;47.526;8.538;2023-12-20T06:53:06;44.07;;;20.40;;
73023;SDS011;72676;47.526;8.538;2023-12-20T06:55:34;49.33;;;20.40;;
73023;SDS011;72676;47.526;8.538;2023-12-20T06:58:02;40.17;;;20.13;;
73023;SDS011;72676;47.526;8.538;2023-12-20T07:00:29;50.33;;;19.70;;
73023;SDS011;72676;47.526;8.538;2023-12-20T07:02:56;44.40;;;20.00;;
73023;SDS011;72676;47.526;8.538;2023-12-20T07:05:24;46.37;;;19.77;;
73023;SDS011;72676;47.526;8.538;2023-12-20T07:07:50;41.83;;;19.10;;
73023;SDS011;72676;47.526;8.538;2023-12-20T07:10:17;40.13;;;18.37;;
73023;SDS011;72676;47.526;8.538;2023-12-20T07:12:44;40.50;;;19.80;;
73023;SDS011;72676;47.526;8.538;2023-12-20T07:15:10;39.23;;;18.20;;
73023;SDS011;72676;47.526;8.538;2023-12-20T07:17:37;39.40;;;18.40;;
73023;SDS011;72676;47.526;8.538;2023-12-20T07:20:04;37.43;;;17.57;;
73023;SDS011;72676;47.526;8.538;2023-12-20T07:22:33;38.40;;;16.90;;
73023;SDS011;72676;47.526;8.538;2023-12-20T07:25:00;35.53;;;16.37;;
73023;SDS011;72676;47.526;8.538;2023-12-20T07:27:27;35.47;;;16.60;;
73023;SDS011;72676;47.526;8.538;2023-12-20T07:29:53;33.30;;;16.53;;
73023;SDS011;72676;47.526;8.538;2023-12-20T07:32:20;33.60;;;15.63;;
73023;SDS011;72676;47.526;8.538;2023-12-20T07:34:46;36.23;;;16.10;;
73023;SDS011;72676;47.526;8.538;2023-12-20T07:37:14;32.20;;;15.10;;
73023;SDS011;72676;47.526;8.538;2023-12-20T07:39:40;31.73;;;15.00;;
73023;SDS011;72676;47.526;8.538;2023-12-20T07:42:08;28.97;;;13.93;;
73023;SDS011;72676;47.526;8.538;2023-12-20T07:44:34;33.40;;;14.03;;
73023;SDS011;72676;47.526;8.538;2023-12-20T07:47:04;31.27;;;14.50;;
73023;SDS011;72676;47.526;8.538;2023-12-20T07:49:31;28.93;;;13.43;;
73023;SDS011;72676;47.526;8.538;2023-12-20T07:51:58;27.87;;;12.90;;
73023;SDS011;72676;47.526;8.538;2023-12-20T07:54:25;22.83;;;11.87;;
73023;SDS011;72676;47.526;8.538;2023-12-20T07:56:51;23.43;;;11.30;;
73023;SDS011;72676;47.526;8.538;2023-12-20T07:59:18;26.63;;;10.60;;
73023;SDS011;72676;47.526;8.538;2023-12-20T08:01:57;22.60;;;11.40;;
73023;SDS011;72676;47.526;8.538;2023-12-20T08:04:24;22.37;;;11.03;;
73023;SDS011;72676;47.526;8.538;2023-12-20T08:06:51;24.10;;;11.00;;
73023;SDS011;72676;47.526;8.538;2023-12-20T08:09:18;20.37;;;10.57;;
73023;SDS011;72676;47.526;8.538;2023-12-20T08:11:46;18.80;;;9.47;;
73023;SDS011;72676;47.526;8.538;2023-12-20T08:14:13;22.40;;;10.73;;
73023;SDS011;72676;47.526;8.538;2023-12-20T08:16:40;23.00;;;10.30;;
73023;SDS011;72676;47.526;8.538;2023-12-20T08:19:06;19.53;;;9.70;;
73023;SDS011;72676;47.526;8.538;2023-12-20T08:21:34;18.43;;;9.80;;
73023;SDS011;72676;47.526;8.538;2023-12-20T08:24:03;23.37;;;10.80;;
73023;SDS011;72676;47.526;8.538;2023-12-20T08:26:30;21.10;;;10.67;;
73023;SDS011;72676;47.526;8.538;2023-12-20T08:28:56;24.70;;;11.67;;
73023;SDS011;72676;47.526;8.538;2023-12-20T08:31:27;23.20;;;11.60;;
73023;SDS011;72676;47.526;8.538;2023-12-20T08:33:54;22.70;;;10.77;;
73023;SDS011;72676;47.526;8.538;2023-12-20T08:36:20;25.33;;;11.77;;
73023;SDS011;72676;47.526;8.538;2023-12-20T08:38:49;24.00;;;11.30;;
73023;SDS011;72676;47.526;8.538;2023-12-20T08:41:16;21.77;;;10.93;;
73023;SDS011;72676;47.526;8.538;2023-12-20T08:43:43;24.30;;;12.47;;
73023;SDS011;72676;47.526;8.538;2023-12-20T08:46:10;23.77;;;11.47;;
73023;SDS011;72676;47.526;8.538;2023-12-20T08:48:36;23.33;;;12.23;;
73023;SDS011;72676;47.526;8.538;2023-12-20T08:51:04;24.40;;;12.23;;
73023;SDS011;72676;47.526;8.538;2023-12-20T08:53:31;26.37;;;12.53;;
73023;SDS011;72676;47.526;8.538;2023-12-20T08:55:57;27.07;;;13.07;;
73023;SDS011;72676;47.526;8.538;2023-12-20T08:58:27;28.47;;;14.20;;
73023;SDS011;72676;47.526;8.538;2023-12-20T09:00:54;35.40;;;14.13;;
73023;SDS011;72676;47.526;8.538;2023-12-20T09:03:21;26.33;;;13.60;;
73023;SDS011;72676;47.526;8.538;2023-12-20T09:05:47;22.73;;;10.70;;
73023;SDS011;72676;47.526;8.538;2023-12-20T09:08:14;28.20;;;14.30;;
73023;SDS011;72676;47.526;8.538;2023-12-20T09:10:40;26.23;;;13.00;;
73023;SDS011;72676;47.526;8.538;2023-12-20T09:13:07;30.83;;;15.13;;
73023;SDS011;72676;47.526;8.538;2023-12-20T09:15:33;36.03;;;16.00;;
73023;SDS011;72676;47.526;8.538;2023-12-20T09:18:02;28.53;;;13.23;;
73023;SDS011;72676;47.526;8.538;2023-12-20T09:20:30;28.50;;;14.17;;
73023;SDS011;72676;47.526;8.538;2023-12-20T09:22:56;31.10;;;15.70;;
73023;SDS011;72676;47.526;8.538;2023-12-20T09:25:23;25.93;;;13.23;;
73023;SDS011;72676;47.526;8.538;2023-12-20T09:27:50;29.90;;;14.87;;
73023;SDS011;72676;47.526;8.538;2023-12-20T09:30:17;32.53;;;14.33;;
73023;SDS011;72676;47.526;8.538;2023-12-20T09:32:52;29.40;;;15.13;;
73023;SDS011;72676;47.526;8.538;2023-12-20T09:35:19;24.00;;;12.40;;
73023;SDS011;72676;47.526;8.538;2023-12-20T09:37:46;29.47;;;13.97;;
73023;SDS011;72676;47.526;8.538;2023-12-20T09:40:13;18.40;;;9.30;;
73023;SDS011;72676;47.526;8.538;2023-12-20T09:45:21;17.60;;;9.63;;
73023;SDS011;72676;47.526;8.538;2023-12-20T09:47:52;20.77;;;8.90;;
73023;SDS011;72676;47.526;8.538;2023-12-20T09:50:20;18.63;;;8.00;;
73023;SDS011;72676;47.526;8.538;2023-12-20T09:52:51;16.03;;;7.07;;
73023;SDS011;72676;47.526;8.538;2023-12-20T09:55:18;14.80;;;7.10;;
73023;SDS011;72676;47.526;8.538;2023-12-20T09:57:47;15.60;;;8.13;;
73023;SDS011;72676;47.526;8.538;2023-12-20T10:00:14;13.50;;;6.80;;
73023;SDS011;72676;47.526;8.538;2023-12-20T10:02:54;13.73;;;6.73;;
73023;SDS011;72676;47.526;8.538;2023-12-20T10:05:30;13.03;;;6.17;;
73023;SDS011;72676;47.526;8.538;2023-12-20T10:07:58;12.13;;;6.10;;
73023;SDS011;72676;47.526;8.538;2023-12-20T10:10:26;10.97;;;5.73;;
73023;SDS011;72676;47.526;8.538;2023-12-20T10:13:10;13.27;;;6.00;;
73023;SDS011;72676;47.526;8.538;2023-12-20T10:15:38;9.20;;;5.03;;
73023;SDS011;72676;47.526;8.538;2023-12-20T10:18:05;9.90;;;4.90;;
73023;SDS011;72676;47.526;8.538;2023-12-20T10:20:33;9.80;;;4.53;;
73023;SDS011;72676;47.526;8.538;2023-12-20T10:23:00;10.50;;;5.00;;
73023;SDS011;72676;47.526;8.538;2023-12-20T10:25:27;10.10;;;5.03;;
73023;SDS011;72676;47.526;8.538;2023-12-20T10:28:14;10.80;;;5.00;;
73023;SDS011;72676;47.526;8.538;2023-12-20T10:30:45;15.60;;;4.60;;
73023;SDS011;72676;47.526;8.538;2023-12-20T10:33:11;10.50;;;4.70;;
73023;SDS011;72676;47.526;8.538;2023-12-20T10:35:39;9.00;;;4.40;;
73023;SDS011;72676;47.526;8.538;2023-12-20T10:38:11;10.30;;;4.40;;
73023;SDS011;72676;47.526;8.538;2023-12-20T10:40:39;10.27;;;5.00;;
73023;SDS011;72676;47.526;8.538;2023-12-20T10:43:06;9.57;;;5.13;;
73023;SDS011;72676;47.526;8.538;2023-12-20T10:45:34;11.23;;;4.23;;
73023;SDS011;72676;47.526;8.538;2023-12-20T10:48:01;10.03;;;4.83;;
73023;SDS011;72676;47.526;8.538;2023-12-20T10:50:28;9.17;;;4.40;;
73023;SDS011;72676;47.526;8.538;2023-12-20T10:52:56;8.70;;;4.20;;
73023;SDS011;72676;47.526;8.538;2023-12-20T10:55:24;6.93;;;3.07;;
73023;SDS011;72676;47.526;8.538;2023-12-20T10:57:51;8.13;;;3.43;;
73023;SDS011;72676;47.526;8.538;2023-12-20T11:00:21;8.53;;;3.27;;
73023;SDS011;72676;47.526;8.538;2023-12-20T11:02:49;7.60;;;3.57;;
73023;SDS011;72676;47.526;8.538;2023-12-20T11:08:10;7.30;;;2.63;;
73023;SDS011;72676;47.526;8.538;2023-12-20T11:10:51;5.10;;;2.07;;
73023;SDS011;72676;47.526;8.538;2023-12-20T11:13:31;5.53;;;2.27;;
73023;SDS011;72676;47.526;8.538;2023-12-20T11:16:00;6.30;;;2.53;;
73023;SDS011;72676;47.526;8.538;2023-12-20T11:18:29;5.37;;;2.40;;
73023;SDS011;72676;47.526;8.538;2023-12-20T11:21:04;5.93;;;2.20;;
73023;SDS011;72676;47.526;8.538;2023-12-20T11:23:31;7.93;;;2.00;;
73023;SDS011;72676;47.526;8.538;2023-12-20T11:26:01;5.63;;;1.80;;
73023;SDS011;72676;47.526;8.538;2023-12-20T11:28:28;5.30;;;2.00;;
73023;SDS011;72676;47.526;8.538;2023-12-20T11:30:57;5.30;;;1.97;;
73023;SDS011;72676;47.526;8.538;2023-12-20T11:33:37;7.27;;;2.13;;
73023;SDS011;72676;47.526;8.538;2023-12-20T11:36:06;5.80;;;2.53;;
73023;SDS011;72676;47.526;8.538;2023-12-20T11:38:48;5.20;;;1.70;;
73023;SDS011;72676;47.526;8.538;2023-12-20T11:41:22;5.27;;;2.17;;
73023;SDS011;72676;47.526;8.538;2023-12-20T11:43:49;5.63;;;1.80;;
73023;SDS011;72676;47.526;8.538;2023-12-20T11:46:19;6.30;;;2.60;;
73023;SDS011;72676;47.526;8.538;2023-12-20T11:48:47;5.30;;;1.87;;
73023;SDS011;72676;47.526;8.538;2023-12-20T11:51:14;4.57;;;1.90;;
73023;SDS011;72676;47.526;8.538;2023-12-20T11:53:41;9.17;;;2.17;;
73023;SDS011;72676;47.526;8.538;2023-12-20T11:56:10;4.67;;;1.73;;
73023;SDS011;72676;47.526;8.538;2023-12-20T11:58:37;3.70;;;1.53;;
73023;SDS011;72676;47.526;8.538;2023-12-20T12:01:04;4.87;;;1.80;;
73023;SDS011;72676;47.526;8.538;2023-12-20T12:03:34;4.13;;;1.60;;
73023;SDS011;72676;47.526;8.538;2023-12-20T12:06:01;4.50;;;1.43;;
73023;SDS011;72676;47.526;8.538;2023-12-20T12:08:29;10.17;;;1.87;;
73023;SDS011;72676;47.526;8.538;2023-12-20T12:10:56;4.43;;;1.70;;
73023;SDS011;72676;47.526;8.538;2023-12-20T12:13:23;4.53;;;1.73;;
73023;SDS011;72676;47.526;8.538;2023-12-20T12:15:53;5.60;;;1.90;;
73023;SDS011;72676;47.526;8.538;2023-12-20T12:18:20;4.30;;;1.70;;
73023;SDS011;72676;47.526;8.538;2023-12-20T12:20:47;4.13;;;1.63;;
73023;SDS011;72676;47.526;8.538;2023-12-20T12:23:13;5.60;;;2.13;;
73023;SDS011;72676;47.526;8.538;2023-12-20T12:25:40;3.20;;;1.67;;
73023;SDS011;72676;47.526;8.538;2023-12-20T12:28:09;4.40;;;2.20;;
73023;SDS011;72676;47.526;8.538;2023-12-20T12:30:36;8.73;;;1.80;;
73023;SDS011;72676;47.526;8.538;2023-12-20T12:33:11;4.20;;;1.70;;
73023;SDS011;72676;47.526;8.538;2023-12-20T12:35:39;3.90;;;1.50;;
73023;SDS011;72676;47.526;8.538;2023-12-20T12:38:06;5.60;;;1.70;;
73023;SDS011;72676;47.526;8.538;2023-12-20T12:40:34;4.90;;;2.13;;
73023;SDS011;72676;47.526;8.538;2023-12-20T12:43:02;3.70;;;1.67;;
73023;SDS011;72676;47.526;8.538;2023-12-20T12:45:30;3.70;;;1.43;;
73023;SDS011;72676;47.526;8.538;2023-12-20T12:47:57;3.53;;;1.80;;
73023;SDS011;72676;47.526;8.538;2023-12-20T12:50:23;3.00;;;1.90;;
73023;SDS011;72676;47.526;8.538;2023-12-20T12:52:50;4.87;;;1.87;;
73023;SDS011;72676;47.526;8.538;2023-12-20T12:55:16;8.60;;;2.40;;
73023;SDS011;72676;47.526;8.538;2023-12-20T12:57:44;2.83;;;1.60;;
73023;SDS011;72676;47.526;8.538;2023-12-20T13:00:11;3.77;;;1.90;;
73023;SDS011;72676;47.526;8.538;2023-12-20T13:02:38;6.07;;;2.40;;
73023;SDS011;72676;47.526;8.538;2023-12-20T13:05:08;3.60;;;1.77;;
73023;SDS011;72676;47.526;8.538;2023-12-20T13:07:35;3.70;;;2.00;;
73023;SDS011;72676;47.526;8.538;2023-12-20T13:10:03;3.70;;;1.83;;
73023;SDS011;72676;47.526;8.538;2023-12-20T13:12:32;3.80;;;1.90;;
73023;SDS011;72676;47.526;8.538;2023-12-20T13:14:58;4.17;;;2.17;;
73023;SDS011;72676;47.526;8.538;2023-12-20T13:17:24;3.87;;;2.07;;
73023;SDS011;72676;47.526;8.538;2023-12-20T13:19:53;8.67;;;2.20;;
73023;SDS011;72676;47.526;8.538;2023-12-20T13:22:20;5.73;;;2.47;;
73023;SDS011;72676;47.526;8.538;2023-12-20T13:24:46;5.10;;;2.00;;
73023;SDS011;72676;47.526;8.538;2023-12-20T13:27:13;2.77;;;1.57;;
73023;SDS011;72676;47.526;8.538;2023-12-20T13:29:39;6.90;;;2.20;;
73023;SDS011;72676;47.526;8.538;2023-12-20T13:32:06;7.50;;;2.47;;
73023;SDS011;72676;47.526;8.538;2023-12-20T13:34:33;3.07;;;1.63;;
73023;SDS011;72676;47.526;8.538;2023-12-20T13:36:59;4.20;;;2.20;;
73023;SDS011;72676;47.526;8.538;2023-12-20T13:39:26;6.40;;;2.60;;
73023;SDS011;72676;47.526;8.538;2023-12-20T13:41:53;3.93;;;2.63;;
73023;SDS011;72676;47.526;8.538;2023-12-20T13:44:19;4.43;;;2.33;;
73023;SDS011;72676;47.526;8.538;2023-12-20T13:46:46;2.37;;;1.93;;
73023;SDS011;72676;47.526;8.538;2023-12-20T13:49:12;4.53;;;2.17;;
73023;SDS011;72676;47.526;8.538;2023-12-20T13:51:40;6.23;;;2.40;;
73023;SDS011;72676;47.526;8.538;2023-12-20T13:54:06;3.50;;;2.20;;
73023;SDS011;72676;47.526;8.538;2023-12-20T13:56:33;5.90;;;2.47;;
73023;SDS011;72676;47.526;8.538;2023-12-20T13:59:12;3.73;;;2.80;;
73023;SDS011;72676;47.526;8.538;2023-12-20T14:01:40;4.63;;;2.50;;
73023;SDS011;72676;47.526;8.538;2023-12-20T14:04:06;8.33;;;2.80;;
73023;SDS011;72676;47.526;8.538;2023-12-20T14:06:33;7.63;;;2.63;;
73023;SDS011;72676;47.526;8.538;2023-12-20T14:08:59;8.93;;;2.30;;
73023;SDS011;72676;47.526;8.538;2023-12-20T14:11:31;11.90;;;2.07;;
73023;SDS011;72676;47.526;8.538;2023-12-20T14:13:58;4.70;;;2.00;;
73023;SDS011;72676;47.526;8.538;2023-12-20T14:16:25;4.17;;;2.20;;
73023;SDS011;72676;47.526;8.538;2023-12-20T14:18:51;7.20;;;2.90;;
73023;SDS011;72676;47.526;8.538;2023-12-20T14:21:18;5.60;;;2.47;;
73023;SDS011;72676;47.526;8.538;2023-12-20T14:23:47;7.73;;;1.70;;
73023;SDS011;72676;47.526;8.538;2023-12-20T14:26:15;11.57;;;2.87;;
73023;SDS011;72676;47.526;8.538;2023-12-20T14:28:42;4.10;;;1.80;;
73023;SDS011;72676;47.526;8.538;2023-12-20T14:31:09;4.37;;;2.30;;
73023;SDS011;72676;47.526;8.538;2023-12-20T14:33:36;5.00;;;1.87;;
73023;SDS011;72676;47.526;8.538;2023-12-20T14:36:07;5.47;;;2.03;;
73023;SDS011;72676;47.526;8.538;2023-12-20T14:38:34;7.97;;;2.23;;